sensor_id;sensor_type;location;lat;lon;timestamp;P1;durP1;ratioP1;P2;durP2;ratioP2
64789;SDS011;51223;51.816;5.862;2023-03-15T00:00:48;0.60;;;0.50;;
64789;SDS011;51223;51.816;5.862;2023-03-15T00:03:14;0.50;;;0.30;;
64789;SDS011;51223;51.816;5.862;2023-03-15T00:05:41;1.30;;;0.60;;
64789;SDS011;51223;51.816;5.862;2023-03-15T00:08:06;0.75;;;0.43;;
64789;SDS011;51223;51.816;5.862;2023-03-15T00:10:32;3.88;;;0.55;;
64789;SDS011;51223;51.816;5.862;2023-03-15T00:12:57;0.20;;;0.10;;
64789;SDS011;51223;51.816;5.862;2023-03-15T00:15:23;0.55;;;0.47;;
64789;SDS011;51223;51.816;5.862;2023-03-15T00:17:49;0.08;;;0.08;;
64789;SDS011;51223;51.816;5.862;2023-03-15T00:20:14;1.15;;;0.70;;
64789;SDS011;51223;51.816;5.862;2023-03-15T00:22:40;0.30;;;0.20;;
64789;SDS011;51223;51.816;5.862;2023-03-15T00:25:06;0.25;;;0.22;;
64789;SDS011;51223;51.816;5.862;2023-03-15T00:27:32;0.15;;;0.15;;
64789;SDS011;51223;51.816;5.862;2023-03-15T00:29:58;0.38;;;0.30;;
64789;SDS011;51223;51.816;5.862;2023-03-15T00:32:24;0.50;;;0.50;;
64789;SDS011;51223;51.816;5.862;2023-03-15T00:34:49;0.90;;;0.60;;
64789;SDS011;51223;51.816;5.862;2023-03-15T00:37:19;2.55;;;0.93;;
64789;SDS011;51223;51.816;5.862;2023-03-15T00:39:45;1.55;;;0.57;;
64789;SDS011;51223;51.816;5.862;2023-03-15T00:42:11;1.23;;;0.50;;
64789;SDS011;51223;51.816;5.862;2023-03-15T00:44:43;0.20;;;0.20;;
64789;SDS011;51223;51.816;5.862;2023-03-15T00:47:09;0.35;;;0.05;;
64789;SDS011;51223;51.816;5.862;2023-03-15T00:49:36;0.30;;;0.30;;
64789;SDS011;51223;51.816;5.862;2023-03-15T00:52:02;0.20;;;0.20;;
64789;SDS011;51223;51.816;5.862;2023-03-15T00:54:28;0.08;;;0.08;;
64789;SDS011;51223;51.816;5.862;2023-03-15T00:56:54;0.55;;;0.50;;
64789;SDS011;51223;51.816;5.862;2023-03-15T00:59:19;0.20;;;0.20;;
64789;SDS011;51223;51.816;5.862;2023-03-15T01:01:46;0.40;;;0.40;;
64789;SDS011;51223;51.816;5.862;2023-03-15T01:04:12;0.50;;;0.50;;
64789;SDS011;51223;51.816;5.862;2023-03-15T01:06:37;0.08;;;0.08;;
64789;SDS011;51223;51.816;5.862;2023-03-15T01:09:04;0.20;;;0.20;;
64789;SDS011;51223;51.816;5.862;2023-03-15T01:11:30;0.50;;;0.30;;
64789;SDS011;51223;51.816;5.862;2023-03-15T01:13:56;0.35;;;0.35;;
64789;SDS011;51223;51.816;5.862;2023-03-15T01:16:22;1.17;;;0.28;;
64789;SDS011;51223;51.816;5.862;2023-03-15T01:18:48;1.50;;;0.32;;
64789;SDS011;51223;51.816;5.862;2023-03-15T01:21:15;0.28;;;0.28;;
64789;SDS011;51223;51.816;5.862;2023-03-15T01:23:41;0.40;;;0.40;;
64789;SDS011;51223;51.816;5.862;2023-03-15T01:26:09;0.43;;;0.20;;
64789;SDS011;51223;51.816;5.862;2023-03-15T01:28:34;0.13;;;0.13;;
64789;SDS011;51223;51.816;5.862;2023-03-15T01:31:00;0.20;;;0.20;;
64789;SDS011;51223;51.816;5.862;2023-03-15T01:33:26;0.20;;;0.20;;
64789;SDS011;51223;51.816;5.862;2023-03-15T01:35:58;0.13;;;0.13;;
64789;SDS011;51223;51.816;5.862;2023-03-15T01:38:24;0.22;;;0.22;;
64789;SDS011;51223;51.816;5.862;2023-03-15T01:40:50;0.20;;;0.20;;
64789;SDS011;51223;51.816;5.862;2023-03-15T01:43:16;0.17;;;0.17;;
64789;SDS011;51223;51.816;5.862;2023-03-15T01:45:52;1.05;;;0.70;;
64789;SDS011;51223;51.816;5.862;2023-03-15T01:48:18;0.70;;;0.35;;
64789;SDS011;51223;51.816;5.862;2023-03-15T01:50:44;0.15;;;0.15;;
64789;SDS011;51223;51.816;5.862;2023-03-15T01:53:10;0.20;;;0.20;;
64789;SDS011;51223;51.816;5.862;2023-03-15T01:55:36;1.17;;;0.60;;
64789;SDS011;51223;51.816;5.862;2023-03-15T01:58:02;0.82;;;0.50;;
64789;SDS011;51223;51.816;5.862;2023-03-15T02:00:34;0.32;;;0.32;;
64789;SDS011;51223;51.816;5.862;2023-03-15T02:03:10;0.43;;;0.30;;
64789;SDS011;51223;51.816;5.862;2023-03-15T02:05:40;0.73;;;0.73;;
64789;SDS011;51223;51.816;5.862;2023-03-15T02:08:10;0.25;;;0.22;;
64789;SDS011;51223;51.816;5.862;2023-03-15T02:10:36;0.30;;;0.30;;
64789;SDS011;51223;51.816;5.862;2023-03-15T02:13:03;1.33;;;0.77;;
64789;SDS011;51223;51.816;5.862;2023-03-15T02:15:29;0.15;;;0.15;;
64789;SDS011;51223;51.816;5.862;2023-03-15T02:17:55;0.40;;;0.40;;
64789;SDS011;51223;51.816;5.862;2023-03-15T02:23:09;0.00;;;0.00;;
64789;SDS011;51223;51.816;5.862;2023-03-15T02:25:44;0.55;;;0.30;;
64789;SDS011;51223;51.816;5.862;2023-03-15T02:28:15;0.30;;;0.30;;
64789;SDS011;51223;51.816;5.862;2023-03-15T02:30:41;0.30;;;0.30;;
64789;SDS011;51223;51.816;5.862;2023-03-15T02:33:09;0.75;;;0.00;;
64789;SDS011;51223;51.816;5.862;2023-03-15T02:35:36;0.10;;;0.10;;
64789;SDS011;51223;51.816;5.862;2023-03-15T02:38:02;0.20;;;0.20;;
64789;SDS011;51223;51.816;5.862;2023-03-15T02:40:28;0.65;;;0.20;;
64789;SDS011;51223;51.816;5.862;2023-03-15T02:42:59;0.30;;;0.30;;
64789;SDS011;51223;51.816;5.862;2023-03-15T02:45:25;2.50;;;0.75;;
64789;SDS011;51223;51.816;5.862;2023-03-15T02:47:51;2.00;;;0.95;;
64789;SDS011;51223;51.816;5.862;2023-03-15T02:50:17;0.13;;;0.13;;
64789;SDS011;51223;51.816;5.862;2023-03-15T02:52:43;0.55;;;0.30;;
64789;SDS011;51223;51.816;5.862;2023-03-15T02:55:08;1.40;;;0.52;;
64789;SDS011;51223;51.816;5.862;2023-03-15T02:57:34;0.25;;;0.17;;
64789;SDS011;51223;51.816;5.862;2023-03-15T03:00:00;0.15;;;0.15;;
64789;SDS011;51223;51.816;5.862;2023-03-15T03:02:39;1.05;;;0.30;;
64789;SDS011;51223;51.816;5.862;2023-03-15T03:05:05;0.13;;;0.13;;
64789;SDS011;51223;51.816;5.862;2023-03-15T03:07:30;0.10;;;0.10;;
64789;SDS011;51223;51.816;5.862;2023-03-15T03:09:56;0.10;;;0.10;;
64789;SDS011;51223;51.816;5.862;2023-03-15T03:12:22;0.80;;;0.20;;
64789;SDS011;51223;51.816;5.862;2023-03-15T03:14:47;0.25;;;0.25;;
64789;SDS011;51223;51.816;5.862;2023-03-15T03:17:13;0.20;;;0.20;;
64789;SDS011;51223;51.816;5.862;2023-03-15T03:19:38;0.57;;;0.05;;
64789;SDS011;51223;51.816;5.862;2023-03-15T03:22:04;0.17;;;0.17;;
64789;SDS011;51223;51.816;5.862;2023-03-15T03:24:30;0.30;;;0.30;;
64789;SDS011;51223;51.816;5.862;2023-03-15T03:26:55;0.30;;;0.30;;
64789;SDS011;51223;51.816;5.862;2023-03-15T03:29:24;0.20;;;0.20;;
64789;SDS011;51223;51.816;5.862;2023-03-15T03:31:50;0.30;;;0.30;;
64789;SDS011;51223;51.816;5.862;2023-03-15T03:34:15;0.30;;;0.30;;
64789;SDS011;51223;51.816;5.862;2023-03-15T03:36:41;0.30;;;0.30;;
64789;SDS011;51223;51.816;5.862;2023-03-15T03:39:07;0.32;;;0.30;;
64789;SDS011;51223;51.816;5.862;2023-03-15T03:41:33;0.22;;;0.22;;
64789;SDS011;51223;51.816;5.862;2023-03-15T03:43:59;0.35;;;0.28;;
64789;SDS011;51223;51.816;5.862;2023-03-15T03:46:24;0.40;;;0.35;;
64789;SDS011;51223;51.816;5.862;2023-03-15T03:48:50;0.50;;;0.20;;
64789;SDS011;51223;51.816;5.862;2023-03-15T03:51:15;0.82;;;0.68;;
64789;SDS011;51223;51.816;5.862;2023-03-15T03:53:41;1.05;;;0.80;;
64789;SDS011;51223;51.816;5.862;2023-03-15T03:56:07;0.35;;;0.35;;
64789;SDS011;51223;51.816;5.862;2023-03-15T03:58:32;0.30;;;0.30;;
64789;SDS011;51223;51.816;5.862;2023-03-15T04:00:58;0.40;;;0.40;;
64789;SDS011;51223;51.816;5.862;2023-03-15T04:03:24;0.47;;;0.38;;
64789;SDS011;51223;51.816;5.862;2023-03-15T04:05:53;0.40;;;0.40;;
64789;SDS011;51223;51.816;5.862;2023-03-15T04:08:19;0.30;;;0.30;;
64789;SDS011;51223;51.816;5.862;2023-03-15T04:10:48;0.57;;;0.38;;
64789;SDS011;51223;51.816;5.862;2023-03-15T04:13:13;0.73;;;0.57;;
64789;SDS011;51223;51.816;5.862;2023-03-15T04:15:39;0.30;;;0.30;;
64789;SDS011;51223;51.816;5.862;2023-03-15T04:18:05;0.60;;;0.60;;
64789;SDS011;51223;51.816;5.862;2023-03-15T04:20:31;0.30;;;0.30;;
64789;SDS011;51223;51.816;5.862;2023-03-15T04:22:59;0.82;;;0.60;;
64789;SDS011;51223;51.816;5.862;2023-03-15T04:25:24;0.50;;;0.50;;
64789;SDS011;51223;51.816;5.862;2023-03-15T04:27:51;0.50;;;0.50;;
64789;SDS011;51223;51.816;5.862;2023-03-15T04:30:23;0.38;;;0.38;;
64789;SDS011;51223;51.816;5.862;2023-03-15T04:32:52;0.38;;;0.38;;
64789;SDS011;51223;51.816;5.862;2023-03-15T04:35:24;0.30;;;0.30;;
64789;SDS011;51223;51.816;5.862;2023-03-15T04:37:50;0.40;;;0.40;;
64789;SDS011;51223;51.816;5.862;2023-03-15T04:40:16;0.32;;;0.32;;
64789;SDS011;51223;51.816;5.862;2023-03-15T04:42:42;0.63;;;0.57;;
64789;SDS011;51223;51.816;5.862;2023-03-15T04:45:08;0.35;;;0.32;;
64789;SDS011;51223;51.816;5.862;2023-03-15T04:47:34;0.38;;;0.38;;
64789;SDS011;51223;51.816;5.862;2023-03-15T04:49:59;0.63;;;0.63;;
64789;SDS011;51223;51.816;5.862;2023-03-15T04:52:25;0.70;;;0.70;;
64789;SDS011;51223;51.816;5.862;2023-03-15T04:54:50;0.40;;;0.40;;
64789;SDS011;51223;51.816;5.862;2023-03-15T04:57:16;0.57;;;0.57;;
64789;SDS011;51223;51.816;5.862;2023-03-15T04:59:41;0.60;;;0.57;;
64789;SDS011;51223;51.816;5.862;2023-03-15T05:02:07;0.60;;;0.60;;
64789;SDS011;51223;51.816;5.862;2023-03-15T05:04:33;2.15;;;1.08;;
64789;SDS011;51223;51.816;5.862;2023-03-15T05:06:58;0.60;;;0.60;;
64789;SDS011;51223;51.816;5.862;2023-03-15T05:09:24;2.03;;;0.73;;
64789;SDS011;51223;51.816;5.862;2023-03-15T05:11:49;0.50;;;0.50;;
64789;SDS011;51223;51.816;5.862;2023-03-15T05:14:15;1.05;;;0.93;;
64789;SDS011;51223;51.816;5.862;2023-03-15T05:16:41;0.70;;;0.65;;
64789;SDS011;51223;51.816;5.862;2023-03-15T05:19:07;0.82;;;0.80;;
64789;SDS011;51223;51.816;5.862;2023-03-15T05:21:33;0.50;;;0.50;;
64789;SDS011;51223;51.816;5.862;2023-03-15T05:23:58;0.98;;;0.70;;
64789;SDS011;51223;51.816;5.862;2023-03-15T05:26:24;1.08;;;1.00;;
64789;SDS011;51223;51.816;5.862;2023-03-15T05:28:49;0.90;;;0.80;;
64789;SDS011;51223;51.816;5.862;2023-03-15T05:31:17;1.30;;;0.90;;
64789;SDS011;51223;51.816;5.862;2023-03-15T05:33:42;0.50;;;0.50;;
64789;SDS011;51223;51.816;5.862;2023-03-15T05:36:11;1.55;;;1.20;;
64789;SDS011;51223;51.816;5.862;2023-03-15T05:38:40;1.00;;;0.65;;
64789;SDS011;51223;51.816;5.862;2023-03-15T05:41:07;1.02;;;0.68;;
64789;SDS011;51223;51.816;5.862;2023-03-15T05:43:33;1.60;;;1.20;;
64789;SDS011;51223;51.816;5.862;2023-03-15T05:45:58;1.95;;;1.08;;
64789;SDS011;51223;51.816;5.862;2023-03-15T05:48:24;0.68;;;0.68;;
64789;SDS011;51223;51.816;5.862;2023-03-15T05:50:49;5.18;;;1.00;;
64789;SDS011;51223;51.816;5.862;2023-03-15T05:53:15;1.08;;;0.82;;
64789;SDS011;51223;51.816;5.862;2023-03-15T05:55:40;1.23;;;0.93;;
64789;SDS011;51223;51.816;5.862;2023-03-15T05:58:06;1.10;;;1.00;;
64789;SDS011;51223;51.816;5.862;2023-03-15T06:00:32;0.80;;;0.80;;
64789;SDS011;51223;51.816;5.862;2023-03-15T06:02:57;1.05;;;0.95;;
64789;SDS011;51223;51.816;5.862;2023-03-15T06:05:23;0.75;;;0.75;;
64789;SDS011;51223;51.816;5.862;2023-03-15T06:07:49;2.83;;;0.98;;
64789;SDS011;51223;51.816;5.862;2023-03-15T06:10:15;0.70;;;0.70;;
64789;SDS011;51223;51.816;5.862;2023-03-15T06:12:41;1.80;;;0.90;;
64789;SDS011;51223;51.816;5.862;2023-03-15T06:15:06;0.65;;;0.60;;
64789;SDS011;51223;51.816;5.862;2023-03-15T06:17:32;0.70;;;0.70;;
64789;SDS011;51223;51.816;5.862;2023-03-15T06:19:58;1.13;;;0.65;;
64789;SDS011;51223;51.816;5.862;2023-03-15T06:22:23;0.73;;;0.70;;
64789;SDS011;51223;51.816;5.862;2023-03-15T06:24:49;0.25;;;0.22;;
64789;SDS011;51223;51.816;5.862;2023-03-15T06:27:14;0.60;;;0.60;;
64789;SDS011;51223;51.816;5.862;2023-03-15T06:29:40;2.08;;;1.00;;
64789;SDS011;51223;51.816;5.862;2023-03-15T06:32:06;0.75;;;0.65;;
64789;SDS011;51223;51.816;5.862;2023-03-15T06:34:31;1.45;;;0.82;;
64789;SDS011;51223;51.816;5.862;2023-03-15T06:36:57;0.88;;;0.70;;
64789;SDS011;51223;51.816;5.862;2023-03-15T06:39:22;0.73;;;0.68;;
64789;SDS011;51223;51.816;5.862;2023-03-15T06:41:49;0.50;;;0.50;;
64789;SDS011;51223;51.816;5.862;2023-03-15T06:44:17;1.13;;;0.95;;
64789;SDS011;51223;51.816;5.862;2023-03-15T06:46:44;3.63;;;1.17;;
64789;SDS011;51223;51.816;5.862;2023-03-15T06:49:10;0.93;;;0.82;;
64789;SDS011;51223;51.816;5.862;2023-03-15T06:51:35;1.58;;;1.20;;
64789;SDS011;51223;51.816;5.862;2023-03-15T06:54:01;0.98;;;0.90;;
64789;SDS011;51223;51.816;5.862;2023-03-15T06:56:26;1.70;;;1.15;;
64789;SDS011;51223;51.816;5.862;2023-03-15T06:58:52;1.58;;;1.25;;
64789;SDS011;51223;51.816;5.862;2023-03-15T07:01:17;1.42;;;1.10;;
64789;SDS011;51223;51.816;5.862;2023-03-15T07:03:43;1.33;;;1.17;;
64789;SDS011;51223;51.816;5.862;2023-03-15T07:06:09;2.25;;;1.35;;
64789;SDS011;51223;51.816;5.862;2023-03-15T07:08:34;0.93;;;0.88;;
64789;SDS011;51223;51.816;5.862;2023-03-15T07:11:01;1.95;;;1.73;;
64789;SDS011;51223;51.816;5.862;2023-03-15T07:13:27;2.42;;;1.40;;
64789;SDS011;51223;51.816;5.862;2023-03-15T07:15:53;1.63;;;1.33;;
64789;SDS011;51223;51.816;5.862;2023-03-15T07:18:19;1.75;;;1.42;;
64789;SDS011;51223;51.816;5.862;2023-03-15T07:20:45;5.38;;;1.83;;
64789;SDS011;51223;51.816;5.862;2023-03-15T07:23:10;2.85;;;1.98;;
64789;SDS011;51223;51.816;5.862;2023-03-15T07:25:36;4.20;;;1.90;;
64789;SDS011;51223;51.816;5.862;2023-03-15T07:28:02;2.75;;;1.60;;
64789;SDS011;51223;51.816;5.862;2023-03-15T07:30:27;1.90;;;1.70;;
64789;SDS011;51223;51.816;5.862;2023-03-15T07:32:53;5.40;;;1.70;;
64789;SDS011;51223;51.816;5.862;2023-03-15T07:35:18;1.67;;;1.42;;
64789;SDS011;51223;51.816;5.862;2023-03-15T07:37:44;2.40;;;1.65;;
64789;SDS011;51223;51.816;5.862;2023-03-15T07:40:10;2.15;;;1.58;;
64789;SDS011;51223;51.816;5.862;2023-03-15T07:42:37;2.17;;;1.40;;
64789;SDS011;51223;51.816;5.862;2023-03-15T07:45:03;2.00;;;1.70;;
64789;SDS011;51223;51.816;5.862;2023-03-15T07:47:29;2.28;;;1.83;;
64789;SDS011;51223;51.816;5.862;2023-03-15T07:49:55;1.02;;;0.85;;
64789;SDS011;51223;51.816;5.862;2023-03-15T07:52:21;3.50;;;1.70;;
64789;SDS011;51223;51.816;5.862;2023-03-15T07:54:46;2.38;;;1.80;;
64789;SDS011;51223;51.816;5.862;2023-03-15T07:57:12;2.17;;;1.17;;
64789;SDS011;51223;51.816;5.862;2023-03-15T07:59:37;0.75;;;0.70;;
64789;SDS011;51223;51.816;5.862;2023-03-15T08:02:03;1.90;;;1.70;;
64789;SDS011;51223;51.816;5.862;2023-03-15T08:04:29;3.00;;;1.70;;
64789;SDS011;51223;51.816;5.862;2023-03-15T08:06:55;1.90;;;1.38;;
64789;SDS011;51223;51.816;5.862;2023-03-15T08:09:20;2.60;;;1.70;;
64789;SDS011;51223;51.816;5.862;2023-03-15T08:11:46;2.03;;;1.70;;
64789;SDS011;51223;51.816;5.862;2023-03-15T08:14:12;4.32;;;1.90;;
64789;SDS011;51223;51.816;5.862;2023-03-15T08:16:37;1.60;;;1.20;;
64789;SDS011;51223;51.816;5.862;2023-03-15T08:19:03;3.55;;;1.45;;
64789;SDS011;51223;51.816;5.862;2023-03-15T08:21:28;5.25;;;2.25;;
64789;SDS011;51223;51.816;5.862;2023-03-15T08:23:54;3.97;;;2.00;;
64789;SDS011;51223;51.816;5.862;2023-03-15T08:26:19;2.92;;;1.95;;
64789;SDS011;51223;51.816;5.862;2023-03-15T08:28:45;3.97;;;1.10;;
64789;SDS011;51223;51.816;5.862;2023-03-15T08:31:10;5.32;;;2.30;;
64789;SDS011;51223;51.816;5.862;2023-03-15T08:33:38;7.10;;;2.00;;
64789;SDS011;51223;51.816;5.862;2023-03-15T08:36:04;3.67;;;1.50;;
64789;SDS011;51223;51.816;5.862;2023-03-15T08:38:30;5.38;;;1.90;;
64789;SDS011;51223;51.816;5.862;2023-03-15T08:40:56;1.73;;;1.27;;
64789;SDS011;51223;51.816;5.862;2023-03-15T08:43:21;3.38;;;1.23;;
64789;SDS011;51223;51.816;5.862;2023-03-15T08:45:47;10.77;;;2.03;;
64789;SDS011;51223;51.816;5.862;2023-03-15T08:48:13;0.63;;;0.57;;
64789;SDS011;51223;51.816;5.862;2023-03-15T08:50:39;1.90;;;1.27;;
64789;SDS011;51223;51.816;5.862;2023-03-15T08:53:05;0.30;;;0.30;;
64789;SDS011;51223;51.816;5.862;2023-03-15T08:55:30;1.52;;;1.05;;
64789;SDS011;51223;51.816;5.862;2023-03-15T08:57:56;2.92;;;0.85;;
64789;SDS011;51223;51.816;5.862;2023-03-15T09:00:21;5.10;;;1.33;;
64789;SDS011;51223;51.816;5.862;2023-03-15T09:02:50;2.30;;;0.68;;
64789;SDS011;51223;51.816;5.862;2023-03-15T09:05:18;0.85;;;0.73;;
64789;SDS011;51223;51.816;5.862;2023-03-15T09:07:44;2.08;;;1.30;;
64789;SDS011;51223;51.816;5.862;2023-03-15T09:10:11;2.63;;;1.17;;
64789;SDS011;51223;51.816;5.862;2023-03-15T09:12:40;3.60;;;0.77;;
64789;SDS011;51223;51.816;5.862;2023-03-15T09:15:05;0.47;;;0.43;;
64789;SDS011;51223;51.816;5.862;2023-03-15T09:17:31;1.70;;;0.95;;
64789;SDS011;51223;51.816;5.862;2023-03-15T09:19:57;4.05;;;1.70;;
64789;SDS011;51223;51.816;5.862;2023-03-15T09:22:22;1.95;;;0.90;;
64789;SDS011;51223;51.816;5.862;2023-03-15T09:24:48;8.68;;;2.00;;
64789;SDS011;51223;51.816;5.862;2023-03-15T09:27:13;8.95;;;1.13;;
64789;SDS011;51223;51.816;5.862;2023-03-15T09:29:39;3.42;;;1.65;;
64789;SDS011;51223;51.816;5.862;2023-03-15T09:32:04;2.88;;;1.17;;
64789;SDS011;51223;51.816;5.862;2023-03-15T09:34:30;6.78;;;0.95;;
64789;SDS011;51223;51.816;5.862;2023-03-15T09:36:56;7.28;;;0.80;;
64789;SDS011;51223;51.816;5.862;2023-03-15T09:39:21;3.85;;;0.80;;
64789;SDS011;51223;51.816;5.862;2023-03-15T09:41:53;2.53;;;1.33;;
64789;SDS011;51223;51.816;5.862;2023-03-15T09:46:57;3.10;;;1.10;;
64789;SDS011;51223;51.816;5.862;2023-03-15T09:49:38;6.47;;;0.98;;
64789;SDS011;51223;51.816;5.862;2023-03-15T09:52:10;1.80;;;0.68;;
64789;SDS011;51223;51.816;5.862;2023-03-15T09:57:02;2.15;;;0.85;;
64789;SDS011;51223;51.816;5.862;2023-03-15T09:59:31;5.53;;;1.15;;
64789;SDS011;51223;51.816;5.862;2023-03-15T10:01:57;1.88;;;0.52;;
64789;SDS011;51223;51.816;5.862;2023-03-15T10:04:29;1.92;;;1.05;;
64789;SDS011;51223;51.816;5.862;2023-03-15T10:06:56;2.80;;;0.30;;
64789;SDS011;51223;51.816;5.862;2023-03-15T10:09:23;0.50;;;0.50;;
64789;SDS011;51223;51.816;5.862;2023-03-15T10:11:55;0.40;;;0.38;;
64789;SDS011;51223;51.816;5.862;2023-03-15T10:17:31;0.77;;;0.63;;
64789;SDS011;51223;51.816;5.862;2023-03-15T10:20:02;0.47;;;0.30;;
64789;SDS011;51223;51.816;5.862;2023-03-15T10:23:13;1.13;;;0.68;;
64789;SDS011;51223;51.816;5.862;2023-03-15T10:25:23;0.82;;;0.43;;
64789;SDS011;51223;51.816;5.862;2023-03-15T10:28:00;2.05;;;0.50;;
64789;SDS011;51223;51.816;5.862;2023-03-15T10:30:28;8.18;;;0.73;;
64789;SDS011;51223;51.816;5.862;2023-03-15T10:32:58;0.45;;;0.38;;
64789;SDS011;51223;51.816;5.862;2023-03-15T10:35:24;2.92;;;0.80;;
64789;SDS011;51223;51.816;5.862;2023-03-15T10:37:50;3.70;;;0.57;;
64789;SDS011;51223;51.816;5.862;2023-03-15T10:40:15;0.10;;;0.10;;
64789;SDS011;51223;51.816;5.862;2023-03-15T10:43:01;1.83;;;1.20;;
64789;SDS011;51223;51.816;5.862;2023-03-15T10:45:36;3.15;;;0.47;;
64789;SDS011;51223;51.816;5.862;2023-03-15T10:48:02;1.92;;;0.95;;
64789;SDS011;51223;51.816;5.862;2023-03-15T10:50:31;0.95;;;0.60;;
64789;SDS011;51223;51.816;5.862;2023-03-15T10:52:58;0.50;;;0.35;;
64789;SDS011;51223;51.816;5.862;2023-03-15T10:55:28;0.93;;;0.52;;
64789;SDS011;51223;51.816;5.862;2023-03-15T10:57:57;1.48;;;0.55;;
64789;SDS011;51223;51.816;5.862;2023-03-15T11:00:33;0.57;;;0.20;;
64789;SDS011;51223;51.816;5.862;2023-03-15T11:05:44;1.50;;;0.45;;
64789;SDS011;51223;51.816;5.862;2023-03-15T11:08:12;0.55;;;0.35;;
64789;SDS011;51223;51.816;5.862;2023-03-15T11:10:38;0.82;;;0.68;;
64789;SDS011;51223;51.816;5.862;2023-03-15T11:13:08;0.60;;;0.50;;
64789;SDS011;51223;51.816;5.862;2023-03-15T11:15:33;0.25;;;0.15;;
64789;SDS011;51223;51.816;5.862;2023-03-15T11:17:59;0.10;;;0.10;;
64789;SDS011;51223;51.816;5.862;2023-03-15T11:20:26;1.50;;;0.30;;
64789;SDS011;51223;51.816;5.862;2023-03-15T11:22:55;5.57;;;0.25;;
64789;SDS011;51223;51.816;5.862;2023-03-15T11:25:21;0.10;;;0.10;;
64789;SDS011;51223;51.816;5.862;2023-03-15T11:27:50;0.50;;;0.32;;
64789;SDS011;51223;51.816;5.862;2023-03-15T11:30:18;2.03;;;0.88;;
64789;SDS011;51223;51.816;5.862;2023-03-15T11:32:45;2.25;;;0.80;;
64789;SDS011;51223;51.816;5.862;2023-03-15T11:35:16;0.30;;;0.30;;
64789;SDS011;51223;51.816;5.862;2023-03-15T11:37:53;2.95;;;0.70;;
64789;SDS011;51223;51.816;5.862;2023-03-15T11:40:21;1.38;;;0.30;;
64789;SDS011;51223;51.816;5.862;2023-03-15T11:42:48;0.88;;;0.50;;
64789;SDS011;51223;51.816;5.862;2023-03-15T11:45:21;6.78;;;0.70;;
64789;SDS011;51223;51.816;5.862;2023-03-15T11:50:18;1.48;;;0.43;;
64789;SDS011;51223;51.816;5.862;2023-03-15T11:52:46;0.10;;;0.10;;
64789;SDS011;51223;51.816;5.862;2023-03-15T11:55:25;1.55;;;0.35;;
64789;SDS011;51223;51.816;5.862;2023-03-15T11:57:52;1.13;;;0.22;;
64789;SDS011;51223;51.816;5.862;2023-03-15T12:02:57;0.13;;;0.10;;
64789;SDS011;51223;51.816;5.862;2023-03-15T12:08:39;4.50;;;0.50;;
64789;SDS011;51223;51.816;5.862;2023-03-15T12:16:20;1.70;;;0.65;;
64789;SDS011;51223;51.816;5.862;2023-03-15T12:18:46;0.05;;;0.05;;
64789;SDS011;51223;51.816;5.862;2023-03-15T12:21:19;0.30;;;0.25;;
64789;SDS011;51223;51.816;5.862;2023-03-15T12:26:25;0.75;;;0.20;;
64789;SDS011;51223;51.816;5.862;2023-03-15T12:28:52;1.58;;;0.52;;
64789;SDS011;51223;51.816;5.862;2023-03-15T12:31:35;5.18;;;0.35;;
64789;SDS011;51223;51.816;5.862;2023-03-15T12:34:10;0.55;;;0.40;;
64789;SDS011;51223;51.816;5.862;2023-03-15T12:36:38;1.25;;;0.90;;
64789;SDS011;51223;51.816;5.862;2023-03-15T12:39:53;0.10;;;0.10;;
64789;SDS011;51223;51.816;5.862;2023-03-15T12:41:51;5.75;;;0.88;;
64789;SDS011;51223;51.816;5.862;2023-03-15T12:46:52;2.10;;;1.48;;
64789;SDS011;51223;51.816;5.862;2023-03-15T12:51:56;1.42;;;0.38;;
64789;SDS011;51223;51.816;5.862;2023-03-15T12:54:22;0.55;;;0.10;;
64789;SDS011;51223;51.816;5.862;2023-03-15T12:56:51;0.40;;;0.32;;
64789;SDS011;51223;51.816;5.862;2023-03-15T12:59:25;0.10;;;0.10;;
64789;SDS011;51223;51.816;5.862;2023-03-15T13:01:51;0.00;;;0.00;;
64789;SDS011;51223;51.816;5.862;2023-03-15T13:04:17;0.55;;;0.30;;
64789;SDS011;51223;51.816;5.862;2023-03-15T13:12:08;3.03;;;0.63;;
64789;SDS011;51223;51.816;5.862;2023-03-15T13:19:48;0.28;;;0.17;;
64789;SDS011;51223;51.816;5.862;2023-03-15T13:22:17;2.40;;;0.47;;
64789;SDS011;51223;51.816;5.862;2023-03-15T13:30:34;2.63;;;0.38;;
64789;SDS011;51223;51.816;5.862;2023-03-15T13:33:45;1.65;;;0.70;;
64789;SDS011;51223;51.816;5.862;2023-03-15T13:35:54;1.13;;;1.05;;
64789;SDS011;51223;51.816;5.862;2023-03-15T13:38:22;3.45;;;0.50;;
64789;SDS011;51223;51.816;5.862;2023-03-15T13:40:48;9.55;;;1.08;;
64789;SDS011;51223;51.816;5.862;2023-03-15T13:43:13;1.65;;;0.43;;
64789;SDS011;51223;51.816;5.862;2023-03-15T13:45:42;0.30;;;0.28;;
64789;SDS011;51223;51.816;5.862;2023-03-15T13:48:08;1.13;;;0.55;;
64789;SDS011;51223;51.816;5.862;2023-03-15T13:50:34;1.48;;;0.35;;
64789;SDS011;51223;51.816;5.862;2023-03-15T13:52:59;4.15;;;1.00;;
64789;SDS011;51223;51.816;5.862;2023-03-15T13:55:26;1.27;;;0.80;;
64789;SDS011;51223;51.816;5.862;2023-03-15T13:57:55;2.25;;;0.73;;
64789;SDS011;51223;51.816;5.862;2023-03-15T14:00:22;0.63;;;0.10;;
64789;SDS011;51223;51.816;5.862;2023-03-15T14:02:51;2.10;;;0.93;;
64789;SDS011;51223;51.816;5.862;2023-03-15T14:05:25;0.85;;;0.22;;
64789;SDS011;51223;51.816;5.862;2023-03-15T14:07:58;0.08;;;0.08;;
64789;SDS011;51223;51.816;5.862;2023-03-15T14:12:56;1.02;;;0.30;;
64789;SDS011;51223;51.816;5.862;2023-03-15T14:15:26;1.80;;;0.90;;
64789;SDS011;51223;51.816;5.862;2023-03-15T14:20:39;0.45;;;0.35;;
64789;SDS011;51223;51.816;5.862;2023-03-15T14:23:08;0.52;;;0.30;;
64789;SDS011;51223;51.816;5.862;2023-03-15T14:25:34;8.05;;;1.00;;
64789;SDS011;51223;51.816;5.862;2023-03-15T14:28:01;0.57;;;0.40;;
64789;SDS011;51223;51.816;5.862;2023-03-15T14:30:26;1.25;;;0.52;;
64789;SDS011;51223;51.816;5.862;2023-03-15T14:32:54;0.60;;;0.50;;
64789;SDS011;51223;51.816;5.862;2023-03-15T14:35:21;0.30;;;0.30;;
64789;SDS011;51223;51.816;5.862;2023-03-15T14:37:47;0.17;;;0.17;;
64789;SDS011;51223;51.816;5.862;2023-03-15T14:40:17;4.57;;;0.68;;
64789;SDS011;51223;51.816;5.862;2023-03-15T14:42:45;0.10;;;0.10;;
64789;SDS011;51223;51.816;5.862;2023-03-15T14:45:11;0.20;;;0.20;;
64789;SDS011;51223;51.816;5.862;2023-03-15T14:47:38;2.47;;;0.28;;
64789;SDS011;51223;51.816;5.862;2023-03-15T14:50:08;0.20;;;0.20;;
64789;SDS011;51223;51.816;5.862;2023-03-15T14:52:35;0.82;;;0.32;;
64789;SDS011;51223;51.816;5.862;2023-03-15T14:55:01;0.63;;;0.32;;
64789;SDS011;51223;51.816;5.862;2023-03-15T14:57:27;0.30;;;0.30;;
64789;SDS011;51223;51.816;5.862;2023-03-15T14:59:52;2.60;;;0.40;;
64789;SDS011;51223;51.816;5.862;2023-03-15T15:02:18;0.60;;;0.43;;
64789;SDS011;51223;51.816;5.862;2023-03-15T15:04:44;0.98;;;0.47;;
64789;SDS011;51223;51.816;5.862;2023-03-15T15:07:12;0.85;;;0.40;;
64789;SDS011;51223;51.816;5.862;2023-03-15T15:09:40;0.32;;;0.32;;
64789;SDS011;51223;51.816;5.862;2023-03-15T15:12:09;2.28;;;1.20;;
64789;SDS011;51223;51.816;5.862;2023-03-15T15:14:35;0.45;;;0.30;;
64789;SDS011;51223;51.816;5.862;2023-03-15T15:17:00;0.20;;;0.20;;
64789;SDS011;51223;51.816;5.862;2023-03-15T15:19:26;0.10;;;0.10;;
64789;SDS011;51223;51.816;5.862;2023-03-15T15:21:52;2.10;;;0.45;;
64789;SDS011;51223;51.816;5.862;2023-03-15T15:24:18;0.25;;;0.22;;
64789;SDS011;51223;51.816;5.862;2023-03-15T15:26:44;0.70;;;0.40;;
64789;SDS011;51223;51.816;5.862;2023-03-15T15:29:11;0.30;;;0.30;;
64789;SDS011;51223;51.816;5.862;2023-03-15T15:31:38;0.57;;;0.30;;
64789;SDS011;51223;51.816;5.862;2023-03-15T15:34:03;0.22;;;0.20;;
64789;SDS011;51223;51.816;5.862;2023-03-15T15:36:31;1.23;;;0.30;;
64789;SDS011;51223;51.816;5.862;2023-03-15T15:38:56;1.02;;;0.40;;
64789;SDS011;51223;51.816;5.862;2023-03-15T15:41:23;1.75;;;0.50;;
64789;SDS011;51223;51.816;5.862;2023-03-15T15:43:49;3.08;;;0.90;;